createdAt,value
2019-06-08T00:02:42.778Z,0.00
2019-06-08T00:05:42.718Z,0.00
2019-06-08T00:08:42.728Z,0.00
2019-06-08T00:11:42.699Z,0.00
2019-06-08T00:14:42.623Z,0.00
2019-06-08T00:17:42.654Z,0.00
2019-06-08T00:20:42.565Z,0.00
2019-06-08T00:23:42.562Z,0.00
2019-06-08T00:26:42.555Z,0.00
2019-06-08T00:29:42.456Z,0.00
2019-06-08T00:32:42.463Z,0.00
2019-06-08T00:35:42.459Z,0.00
2019-06-08T00:38:42.360Z,0.00
2019-06-08T00:41:42.373Z,0.00
2019-06-08T00:44:42.300Z,0.00
2019-06-08T00:47:47.912Z,0.00
2019-06-08T00:50:43.229Z,0.00
2019-06-08T00:53:42.224Z,0.00
2019-06-08T00:56:42.187Z,0.00
2019-06-08T00:59:42.170Z,0.00
2019-06-08T01:02:42.101Z,0.00
2019-06-08T01:05:42.116Z,0.00
2019-06-08T01:08:42.069Z,0.00
2019-06-08T01:11:42.002Z,0.00
2019-06-08T01:14:42.008Z,0.00
2019-06-08T01:17:41.936Z,0.00
2019-06-08T01:20:41.942Z,0.00
2019-06-08T01:23:41.893Z,0.00
2019-06-08T01:26:41.859Z,0.00
2019-06-08T01:29:41.810Z,0.00
2019-06-08T01:32:41.798Z,0.00
2019-06-08T01:35:41.760Z,0.00
2019-06-08T01:38:41.713Z,0.00
2019-06-08T01:41:41.698Z,0.00
2019-06-08T01:44:41.677Z,0.00
2019-06-08T01:47:41.618Z,0.00
2019-06-08T01:50:41.626Z,0.00
2019-06-08T01:53:41.546Z,0.00
2019-06-08T01:56:41.544Z,0.00
2019-06-08T01:59:41.478Z,0.00
2019-06-08T02:02:41.480Z,0.00
2019-06-08T02:05:41.412Z,0.00
2019-06-08T02:08:41.430Z,0.00
2019-06-08T02:11:41.380Z,0.00
2019-06-08T02:14:41.310Z,0.00
2019-06-08T02:17:41.315Z,0.00
2019-06-08T02:20:41.243Z,0.00
2019-06-08T02:23:41.229Z,0.00
2019-06-08T02:26:41.217Z,0.00
2019-06-08T02:29:41.151Z,0.00
2019-06-08T02:32:41.136Z,0.00
2019-06-08T02:35:41.870Z,0.00
2019-06-08T02:38:41.088Z,0.00
2019-06-08T02:41:41.066Z,0.00
2019-06-08T02:44:40.982Z,0.00
2019-06-08T02:47:41.302Z,0.00
2019-06-08T02:50:40.924Z,0.00
2019-06-08T02:53:41.611Z,0.00
2019-06-08T02:56:41.199Z,0.00
2019-06-08T02:59:41.173Z,0.00
2019-06-08T03:02:40.822Z,5.62
2019-06-08T03:05:40.791Z,5.62
2019-06-08T03:08:43.501Z,5.62
2019-06-08T03:11:41.316Z,5.62
2019-06-08T03:14:42.031Z,11.25
2019-06-08T03:17:42.008Z,11.25
2019-06-08T03:20:42.469Z,11.25
2019-06-08T03:23:41.538Z,16.88
2019-06-08T03:30:17.284Z,28.12
2019-06-08T03:33:09.766Z,22.50
2019-06-08T03:36:08.752Z,28.12
2019-06-08T03:39:08.685Z,28.12
2019-06-08T03:42:08.681Z,33.75
2019-06-08T03:45:08.627Z,28.12
2019-06-08T03:48:18.714Z,28.12
2019-06-08T03:51:18.627Z,28.12
2019-06-08T03:54:08.541Z,28.12
2019-06-08T03:57:08.525Z,33.75
2019-06-08T04:00:13.596Z,39.38
2019-06-08T04:03:09.474Z,45.00
2019-06-08T04:06:08.401Z,56.25
2019-06-08T04:09:08.470Z,73.12
2019-06-08T04:12:18.530Z,73.12
2019-06-08T04:15:24.526Z,78.75
2019-06-08T04:18:08.261Z,73.12
2019-06-08T04:21:08.293Z,78.75
2019-06-08T04:24:20.312Z,78.75
2019-06-08T04:27:08.164Z,78.75
2019-06-08T04:30:08.199Z,84.38
2019-06-08T04:33:08.114Z,202.50
2019-06-08T04:36:08.103Z,140.62
2019-06-08T04:39:08.031Z,135.00
2019-06-08T04:42:08.051Z,140.62
2019-06-08T04:45:08.037Z,118.12
2019-06-08T04:48:09.722Z,151.88
2019-06-08T04:51:07.922Z,151.88
2019-06-08T04:54:07.925Z,135.00
2019-06-08T04:57:07.839Z,118.12
2019-06-08T05:00:12.020Z,163.12
2019-06-08T05:03:08.775Z,174.38
2019-06-08T05:06:07.775Z,202.50
2019-06-08T05:09:07.713Z,337.50
2019-06-08T05:12:07.711Z,343.12
2019-06-08T05:15:07.668Z,247.50
2019-06-08T05:18:07.631Z,213.75
2019-06-08T05:21:07.617Z,202.50
2019-06-08T05:24:07.545Z,174.38
2019-06-08T05:27:07.569Z,146.25
2019-06-08T05:30:08.668Z,135.00
2019-06-08T05:33:07.527Z,118.12
2019-06-08T05:36:07.438Z,112.50
2019-06-08T05:39:07.391Z,112.50
2019-06-08T05:42:07.378Z,112.50
2019-06-08T05:45:07.339Z,129.38
2019-06-08T05:48:07.300Z,140.62
2019-06-08T05:51:07.264Z,174.38
2019-06-08T05:54:07.224Z,174.38
2019-06-08T05:57:15.751Z,146.25
2019-06-08T06:00:09.250Z,163.12
2019-06-08T06:03:07.133Z,146.25
2019-06-08T06:06:07.106Z,146.25
2019-06-08T06:09:07.065Z,146.25
2019-06-08T06:12:07.045Z,151.88
2019-06-08T06:15:07.008Z,168.75
2019-06-08T06:18:06.995Z,123.75
2019-06-08T06:21:11.180Z,135.00
2019-06-08T06:24:07.934Z,129.38
2019-06-08T06:27:06.866Z,118.12
2019-06-08T06:30:06.871Z,135.00
2019-06-08T06:33:06.801Z,140.62
2019-06-08T06:36:06.793Z,163.12
2019-06-08T06:39:06.763Z,174.38
2019-06-08T06:42:06.774Z,180.00
2019-06-08T06:45:06.714Z,185.62
2019-06-08T06:48:06.666Z,219.38
2019-06-08T06:51:06.609Z,270.00
2019-06-08T06:54:06.628Z,303.75
2019-06-08T06:57:06.551Z,275.62
2019-06-08T07:00:06.562Z,230.62
2019-06-08T07:03:06.482Z,236.25
2019-06-08T07:06:06.482Z,264.38
2019-06-08T07:09:06.432Z,360.00
2019-06-08T07:12:06.390Z,343.12
2019-06-08T07:15:06.388Z,399.38
2019-06-08T07:18:07.109Z,405.00
2019-06-08T07:21:06.310Z,433.12
2019-06-08T07:24:06.250Z,466.88
2019-06-08T07:27:14.788Z,427.50
2019-06-08T07:30:06.219Z,410.62
2019-06-08T07:33:06.188Z,466.88
2019-06-08T07:36:06.145Z,433.12
2019-06-08T07:39:06.143Z,438.75
2019-06-08T07:42:06.099Z,410.62
2019-06-08T07:45:06.024Z,438.75
2019-06-08T07:48:06.054Z,365.62
2019-06-08T07:51:05.965Z,343.12
2019-06-08T07:54:05.953Z,444.38
2019-06-08T07:57:05.937Z,427.50
2019-06-08T08:00:09.429Z,528.75
2019-06-08T08:03:05.853Z,495.00
2019-06-08T08:06:05.799Z,478.12
2019-06-08T08:09:05.820Z,517.50
2019-06-08T08:12:05.736Z,534.38
2019-06-08T08:15:05.741Z,489.38
2019-06-08T08:18:05.716Z,433.12
2019-06-08T08:21:18.868Z,815.62
2019-06-08T08:24:07.266Z,523.12
2019-06-08T08:27:08.188Z,551.25
2019-06-08T08:30:08.168Z,466.88
2019-06-08T08:33:07.787Z,528.75
2019-06-08T08:36:07.293Z,652.50
2019-06-08T08:39:08.182Z,568.12
2019-06-08T08:42:05.597Z,523.12
2019-06-08T08:45:08.517Z,348.75
2019-06-08T08:48:23.757Z,556.88
2019-06-08T08:51:08.595Z,483.75
2019-06-08T08:54:06.081Z,624.38
2019-06-08T08:57:07.856Z,506.25
2019-06-08T09:00:05.379Z,511.88
2019-06-08T09:03:22.103Z,540.00
2019-06-08T09:06:08.490Z,427.50
2019-06-08T09:09:05.146Z,461.25
2019-06-08T09:12:05.134Z,607.50
2019-06-08T09:15:05.196Z,646.88
2019-06-08T09:18:07.930Z,675.00
2019-06-08T09:21:05.034Z,506.25
2019-06-08T09:24:07.522Z,635.62
2019-06-08T09:27:07.795Z,568.12
2019-06-08T09:30:05.054Z,697.50
2019-06-08T09:33:04.939Z,613.12
2019-06-08T09:36:05.063Z,545.62
2019-06-08T09:39:09.085Z,573.75
2019-06-08T09:42:05.779Z,551.25
2019-06-08T09:45:05.607Z,596.25
2019-06-08T09:48:06.421Z,573.75
2019-06-08T09:51:12.234Z,646.88
2019-06-08T09:54:06.211Z,573.75
2019-06-08T09:57:06.082Z,495.00
2019-06-08T10:00:14.466Z,371.25
2019-06-08T10:03:07.153Z,247.50
2019-06-08T10:06:08.412Z,270.00
2019-06-08T10:09:05.482Z,472.50
2019-06-08T10:12:06.105Z,607.50
2019-06-08T10:15:04.745Z,579.38
2019-06-08T10:18:04.980Z,618.75
2019-06-08T10:21:06.030Z,528.75
2019-06-08T10:24:06.295Z,511.88
2019-06-08T10:27:08.011Z,405.00
2019-06-08T10:30:05.849Z,500.62
2019-06-08T10:33:05.810Z,607.50
2019-06-08T10:36:06.028Z,517.50
2019-06-08T10:39:07.272Z,500.62
2019-06-08T10:42:06.553Z,714.38
2019-06-08T10:45:08.149Z,736.88
2019-06-08T10:48:06.352Z,781.88
2019-06-08T10:51:05.569Z,748.12
2019-06-08T10:54:04.406Z,832.50
2019-06-08T10:57:07.231Z,568.12
2019-06-08T11:00:13.879Z,534.38
2019-06-08T11:03:06.706Z,534.38
2019-06-08T11:06:04.845Z,545.62
2019-06-08T11:09:07.344Z,455.62
2019-06-08T11:12:07.726Z,438.75
2019-06-08T11:15:05.283Z,545.62
2019-06-08T11:18:06.955Z,388.12
2019-06-08T11:21:06.330Z,354.38
2019-06-08T11:24:13.292Z,343.12
2019-06-08T11:27:05.696Z,371.25
2019-06-08T11:30:11.705Z,320.62
2019-06-08T11:33:06.134Z,360.00
2019-06-08T11:36:06.216Z,337.50
2019-06-08T11:39:06.096Z,433.12
2019-06-08T11:42:04.386Z,562.50
2019-06-08T11:45:04.509Z,596.25
2019-06-08T11:48:04.745Z,517.50
2019-06-08T11:51:04.659Z,585.00
2019-06-08T11:54:04.948Z,646.88
2019-06-08T11:57:03.365Z,675.00
2019-06-08T12:00:11.917Z,635.62
2019-06-08T12:03:04.305Z,686.25
2019-06-08T12:06:04.191Z,596.25
2019-06-08T12:09:04.129Z,517.50
2019-06-08T12:12:04.487Z,804.38
2019-06-08T12:15:03.138Z,472.50
2019-06-08T12:18:03.453Z,495.00
2019-06-08T12:21:03.771Z,421.88
2019-06-08T12:24:04.167Z,281.25
2019-06-08T12:27:10.802Z,191.25
2019-06-08T12:30:09.125Z,241.88
2019-06-08T12:33:04.870Z,326.25
2019-06-08T12:36:02.913Z,562.50
2019-06-08T12:39:02.896Z,376.88
2019-06-08T12:42:02.851Z,405.00
2019-06-08T12:45:02.828Z,421.88
2019-06-08T12:48:02.793Z,286.88
2019-06-08T12:51:02.763Z,258.75
2019-06-08T12:54:02.728Z,472.50
2019-06-08T12:57:02.717Z,450.00
2019-06-08T13:00:02.676Z,365.62
2019-06-08T13:03:02.637Z,348.75
2019-06-08T13:06:02.619Z,337.50
2019-06-08T13:09:02.566Z,438.75
2019-06-08T13:12:02.588Z,596.25
2019-06-08T13:15:02.533Z,483.75
2019-06-08T13:18:02.465Z,472.50
2019-06-08T13:21:15.531Z,455.62
2019-06-08T13:24:03.415Z,472.50
2019-06-08T13:27:02.370Z,489.38
2019-06-08T13:30:02.379Z,472.50
2019-06-08T13:33:02.303Z,354.38
2019-06-08T13:36:02.309Z,455.62
2019-06-08T13:39:02.240Z,506.25
2019-06-08T13:42:02.357Z,450.00
2019-06-08T13:45:02.195Z,382.50
2019-06-08T13:48:02.150Z,495.00
2019-06-08T13:51:02.136Z,326.25
2019-06-08T13:54:02.081Z,202.50
2019-06-08T13:57:02.084Z,399.38
2019-06-08T14:00:02.025Z,680.62
2019-06-08T14:03:02.038Z,523.12
2019-06-08T14:06:01.957Z,472.50
2019-06-08T14:09:01.945Z,416.25
2019-06-08T14:12:01.925Z,292.50
2019-06-08T14:15:01.854Z,376.88
2019-06-08T14:18:01.861Z,793.12
2019-06-08T14:21:01.804Z,680.62
2019-06-08T14:24:01.814Z,680.62
2019-06-08T14:27:01.738Z,393.75
2019-06-08T14:30:01.770Z,596.25
2019-06-08T14:33:01.701Z,568.12
2019-06-08T14:36:01.631Z,495.00
2019-06-08T14:39:02.628Z,680.62
2019-06-08T14:42:01.591Z,534.38
2019-06-08T14:45:01.588Z,511.88
2019-06-08T14:48:01.504Z,528.75
2019-06-08T14:51:01.613Z,320.62
2019-06-08T14:54:01.443Z,331.88
2019-06-08T14:57:01.550Z,466.88
2019-06-08T15:00:08.374Z,399.38
2019-06-08T15:03:02.368Z,410.62
2019-06-08T15:06:01.310Z,646.88
2019-06-08T15:09:01.304Z,517.50
2019-06-08T15:12:01.276Z,506.25
2019-06-08T15:15:01.270Z,461.25
2019-06-08T15:18:01.186Z,658.12
2019-06-08T15:21:01.183Z,618.75
2019-06-08T15:24:01.120Z,365.62
2019-06-08T15:27:01.129Z,624.38
2019-06-08T15:30:01.055Z,635.62
2019-06-08T15:33:01.049Z,556.88
2019-06-08T15:36:00.991Z,1006.88
2019-06-08T15:39:00.990Z,1265.62
2019-06-08T15:42:00.935Z,298.12
2019-06-08T15:45:00.968Z,292.50
2019-06-08T15:48:00.875Z,208.12
2019-06-08T15:51:00.871Z,360.00
2019-06-08T15:54:08.389Z,427.50
2019-06-08T15:57:00.768Z,354.38
2019-06-08T16:00:00.794Z,230.62
2019-06-08T16:03:00.727Z,168.75
2019-06-08T16:06:00.698Z,163.12
2019-06-08T16:09:00.682Z,247.50
2019-06-08T16:12:00.608Z,1485.00
2019-06-08T16:15:00.630Z,815.62
2019-06-08T16:18:00.602Z,337.50
2019-06-08T16:21:00.553Z,517.50
2019-06-08T16:24:00.480Z,540.00
2019-06-08T16:27:00.473Z,1102.50
2019-06-08T16:30:00.424Z,1125.00
2019-06-08T16:33:00.410Z,883.12
2019-06-08T16:36:00.391Z,461.25
2019-06-08T16:39:00.327Z,320.62
2019-06-08T16:42:00.329Z,236.25
2019-06-08T16:45:00.300Z,135.00
2019-06-08T16:48:00.223Z,67.50
2019-06-08T16:51:00.216Z,50.62
2019-06-08T16:54:00.201Z,45.00
2019-06-08T16:57:09.371Z,84.38
2019-06-08T17:00:29.513Z,112.50
2019-06-08T17:03:01.067Z,180.00
2019-06-08T17:06:00.088Z,151.88
2019-06-08T17:09:00.000Z,151.88
2019-06-08T17:12:14.969Z,208.12
2019-06-08T17:14:59.962Z,292.50
2019-06-08T17:17:59.955Z,270.00
2019-06-08T17:21:09.908Z,258.75
2019-06-08T17:23:59.841Z,208.12
2019-06-08T17:26:59.856Z,225.00
2019-06-08T17:29:59.973Z,219.38
2019-06-08T17:32:59.782Z,185.62
2019-06-08T17:35:59.819Z,185.62
2019-06-08T17:38:59.683Z,180.00
2019-06-08T17:41:59.685Z,253.12
2019-06-08T17:44:59.616Z,241.88
2019-06-08T17:47:59.752Z,236.25
2019-06-08T17:50:59.600Z,185.62
2019-06-08T17:53:59.539Z,84.38
2019-06-08T17:56:59.524Z,73.12
2019-06-08T17:59:59.473Z,106.88
2019-06-08T18:03:00.632Z,146.25
2019-06-08T18:05:59.385Z,180.00
2019-06-08T18:08:59.410Z,140.62
2019-06-08T18:11:59.727Z,112.50
2019-06-08T18:14:59.331Z,112.50
2019-06-08T18:17:59.267Z,95.62
2019-06-08T18:20:59.265Z,67.50
2019-06-08T18:23:59.204Z,61.88
2019-06-08T18:26:59.197Z,67.50
2019-06-08T18:29:59.139Z,78.75
2019-06-08T18:32:59.135Z,106.88
2019-06-08T18:35:59.145Z,151.88
2019-06-08T18:38:59.070Z,129.38
2019-06-08T18:41:59.190Z,84.38
2019-06-08T18:44:59.021Z,45.00
2019-06-08T18:47:58.934Z,33.75
2019-06-08T18:50:58.946Z,16.88
2019-06-08T18:54:14.356Z,5.62
2019-06-08T18:56:59.847Z,11.25
2019-06-08T18:59:58.846Z,11.25
2019-06-08T19:02:58.773Z,5.62
2019-06-08T19:05:58.798Z,11.25
2019-06-08T19:08:58.709Z,11.25
2019-06-08T19:11:58.721Z,22.50
2019-06-08T19:14:58.726Z,39.38
2019-06-08T19:17:59.077Z,39.38
2019-06-08T19:20:58.587Z,39.38
2019-06-08T19:23:58.586Z,33.75
2019-06-08T19:26:58.515Z,28.12
2019-06-08T19:29:58.521Z,28.12
2019-06-08T19:32:58.488Z,16.88
2019-06-08T19:35:58.497Z,11.25
2019-06-08T19:38:58.426Z,11.25
2019-06-08T19:41:59.805Z,5.62
2019-06-08T19:45:04.968Z,5.62
2019-06-08T19:47:59.328Z,5.62
2019-06-08T19:50:58.300Z,0.00
2019-06-08T19:53:58.526Z,0.00
2019-06-08T19:56:58.215Z,0.00
2019-06-08T20:00:00.476Z,0.00
2019-06-08T20:02:58.450Z,0.00
2019-06-08T20:05:58.095Z,0.00
2019-06-08T20:08:58.085Z,0.00
2019-06-08T20:12:00.183Z,0.00
2019-06-08T20:14:58.021Z,0.00
2019-06-08T20:17:57.965Z,0.00
2019-06-08T20:20:58.586Z,0.00
2019-06-08T20:23:58.486Z,0.00
2019-06-08T20:27:07.738Z,0.00
2019-06-08T20:29:58.337Z,0.00
2019-06-08T20:32:57.841Z,0.00
2019-06-08T20:35:58.539Z,0.00
2019-06-08T20:38:58.462Z,0.00
2019-06-08T20:41:58.584Z,0.00
2019-06-08T20:44:57.845Z,0.00
2019-06-08T20:47:58.547Z,0.00
2019-06-08T20:50:57.611Z,0.00
2019-06-08T20:53:57.601Z,0.00
2019-06-08T20:56:58.084Z,0.00
2019-06-08T20:59:58.075Z,0.00
2019-06-08T21:03:02.801Z,0.00
2019-06-08T21:05:58.445Z,0.00
2019-06-08T21:08:58.601Z,0.00
2019-06-08T21:11:58.782Z,0.00
2019-06-08T21:14:57.352Z,0.00
2019-06-08T21:18:07.905Z,0.00
2019-06-08T21:21:07.960Z,0.00
2019-06-08T21:24:04.797Z,0.00
2019-06-08T21:27:08.188Z,0.00
2019-06-08T21:30:11.844Z,0.00
2019-06-08T21:34:52.669Z,0.00
2019-06-08T21:37:42.529Z,0.00
2019-06-08T21:40:42.492Z,0.00
2019-06-08T21:43:42.427Z,0.00
2019-06-08T21:46:42.433Z,0.00
2019-06-08T21:49:42.423Z,0.00
2019-06-08T21:52:51.492Z,0.00
2019-06-08T21:55:42.315Z,0.00
2019-06-08T21:58:42.298Z,0.00
2019-06-08T22:01:42.223Z,0.00
2019-06-08T22:04:42.230Z,0.00
2019-06-08T22:07:42.160Z,0.00
2019-06-08T22:10:42.166Z,0.00
2019-06-08T22:13:42.128Z,0.00
2019-06-08T22:16:42.150Z,0.00
2019-06-08T22:19:42.035Z,0.00
2019-06-08T22:22:42.020Z,0.00
2019-06-08T22:25:41.988Z,0.00
2019-06-08T22:28:41.927Z,0.00
2019-06-08T22:31:41.961Z,0.00
2019-06-08T22:34:41.862Z,0.00
2019-06-08T22:37:41.871Z,0.00
2019-06-08T22:40:41.798Z,0.00
2019-06-08T22:43:41.807Z,0.00
2019-06-08T22:46:41.771Z,0.00
2019-06-08T22:49:41.696Z,0.00
2019-06-08T22:52:41.723Z,0.00
2019-06-08T22:55:41.633Z,0.00
2019-06-08T22:58:41.624Z,0.00
2019-06-08T23:01:41.607Z,0.00
2019-06-08T23:04:41.559Z,0.00
2019-06-08T23:07:41.554Z,0.00
2019-06-08T23:10:41.474Z,0.00
2019-06-08T23:13:41.476Z,0.00
2019-06-08T23:16:41.415Z,0.00
2019-06-08T23:19:41.392Z,0.00
2019-06-08T23:22:41.370Z,0.00
2019-06-08T23:25:41.343Z,0.00
2019-06-08T23:28:41.296Z,0.00
2019-06-08T23:31:41.240Z,0.00
2019-06-08T23:34:41.237Z,0.00
2019-06-08T23:37:41.174Z,0.00
2019-06-08T23:40:41.186Z,0.00
2019-06-08T23:43:41.108Z,0.00
2019-06-08T23:46:41.122Z,0.00
2019-06-08T23:49:41.038Z,0.00
2019-06-08T23:52:41.047Z,0.00
2019-06-08T23:55:41.018Z,0.00
2019-06-08T23:58:40.943Z,0.00
